Typhoon — UDVO — position and weather

sailwx.info

Track history (hours):
 
Tides and Currents Weather Stations Pressure Air Temp Water Temp Dewpoint Dewpoint Depression Visibility Wind Speed Wind Dir Waves Ship Positions

Typhoon

Last reported at 2018-Feb-21 17:29 UTC. Time now 2018-Feb-21 17:32 UTC.
Position N 59°53' E 030°12'.

Length 30 m.

Type: Tug. MMSI: 273317680.

Date/timePositionNaut miles runAvg speedWind from/ knotsBaromVisibWave heightAir tempDewpointWater temp
2018-Feb-21 17:29N 59°53' E 030°12'0 0.6
2018-Feb-21 16:54N 59°52' E 030°12'0 0.1
2018-Feb-21 16:30N 59°52' E 030°12'3 5.3
2018-Feb-21 16:00N 59°55' E 030°14'0 0.7
2018-Feb-21 15:29N 59°55' E 030°14'0 0.0
2018-Feb-21 14:56N 59°55' E 030°14'0 0.0
2018-Feb-21 14:29N 59°55' E 030°14'0 0.0
2018-Feb-21 13:59N 59°55' E 030°14'0 0.0
2018-Feb-21 13:29N 59°55' E 030°14'0 0.0
2018-Feb-21 12:59N 59°55' E 030°14'0 0.0
2018-Feb-21 12:26N 59°55' E 030°14'0 0.0
2018-Feb-21 11:59N 59°55' E 030°14'0 0.0
2018-Feb-21 11:29N 59°55' E 030°14'0 0.0
2018-Feb-21 10:59N 59°55' E 030°14'0 0.0
2018-Feb-21 10:29N 59°55' E 030°14'0 0.0
2018-Feb-21 09:59N 59°55' E 030°14'0 0.0
2018-Feb-21 09:29N 59°55' E 030°14'0 0.0
2018-Feb-21 08:59N 59°55' E 030°14'0 0.0
2018-Feb-21 08:29N 59°55' E 030°14'2 4.5
2018-Feb-21 08:00N 59°53' E 030°10'0 0.5
2018-Feb-21 07:30N 59°53' E 030°10'0 0.3
2018-Feb-21 06:53N 59°53' E 030°10'0 0.0
2018-Feb-21 06:26N 59°53' E 030°10'0 0.2
2018-Feb-21 06:00N 59°53' E 030°10'2 3.2
2018-Feb-21 05:29N 59°52' E 030°12'0 0.1
2018-Feb-21 05:00N 59°52' E 030°12'0 0.0
2018-Feb-21 04:29N 59°52' E 030°12'0 0.0
2018-Feb-21 03:52N 59°52' E 030°12'0 0.4
2018-Feb-21 02:53N 59°53' E 030°12'0 0.0
2018-Feb-21 02:14N 59°53' E 030°12'0 0.0
2018-Feb-21 01:47N 59°53' E 030°12'0 0.0
2018-Feb-21 01:19N 59°53' E 030°12'0 0.6
2018-Feb-21 01:00N 59°53' E 030°11'0 0.1
2018-Feb-21 00:30N 59°53' E 030°11'0 0.7
2018-Feb-20 23:58N 59°52' E 030°12'1 1.6
2018-Feb-20 23:30N 59°53' E 030°11'2 4.4
2018-Feb-20 23:00N 59°55' E 030°14'0 0.4
2018-Feb-20 22:28N 59°55' E 030°14'0 0.0
2018-Feb-20 21:58N 59°55' E 030°14'0 0.0
2018-Feb-20 21:28N 59°55' E 030°14'0 0.0
2018-Feb-20 20:55N 59°55' E 030°14'0 0.0
2018-Feb-20 20:28N 59°55' E 030°14'0 0.0
2018-Feb-20 19:58N 59°55' E 030°14'0 0.0
2018-Feb-20 19:25N 59°55' E 030°14'0 0.0
2018-Feb-20 18:58N 59°55' E 030°14'0 0.0
2018-Feb-20 18:28N 59°55' E 030°14'0 0.0
2018-Feb-20 17:58N 59°55' E 030°14'0 0.5
2018-Feb-20 17:30N 59°54' E 030°14'2 3.3
2018-Feb-20 16:52N 59°52' E 030°12'0 0.0
2018-Feb-20 16:28N 59°52' E 030°12'0 0.2
2018-Feb-20 15:57N 59°52' E 030°12'1 1.8
2018-Feb-20 15:30N 59°53' E 030°12'2 2.8
2018-Feb-20 14:58N 59°55' E 030°14'0 0.0
2018-Feb-20 14:28N 59°55' E 030°14'0 0.0
2018-Feb-20 13:58N 59°55' E 030°14'0 0.0
2018-Feb-20 13:28N 59°55' E 030°14'0 0.0
2018-Feb-20 12:58N 59°55' E 030°14'0 0.0
2018-Feb-20 12:28N 59°55' E 030°14'0 0.0
2018-Feb-20 11:58N 59°55' E 030°14'0 0.0
2018-Feb-20 11:28N 59°55' E 030°14'0 0.0
2018-Feb-20 10:55N 59°55' E 030°14'0 0.0
2018-Feb-20 10:28N 59°55' E 030°14'0 0.0
2018-Feb-20 09:55N 59°55' E 030°14'0 0.0
2018-Feb-20 09:28N 59°55' E 030°14'0 0.0
2018-Feb-20 08:58N 59°55' E 030°14'0 0.0
2018-Feb-20 08:28N 59°55' E 030°14'0 0.0
2018-Feb-20 07:58N 59°55' E 030°14'0 0.0
2018-Feb-20 07:28N 59°55' E 030°14'0 0.0
2018-Feb-20 06:58N 59°55' E 030°14'0 0.0
2018-Feb-20 06:28N 59°55' E 030°14'0 0.0
2018-Feb-20 05:58N 59°55' E 030°14'0 0.0
2018-Feb-20 05:28N 59°55' E 030°14'0 0.0
2018-Feb-20 04:58N 59°55' E 030°14'0 0.0
2018-Feb-20 04:28N 59°55' E 030°14'0 0.0
2018-Feb-20 03:58N 59°55' E 030°14'0 0.0
2018-Feb-20 03:28N 59°55' E 030°14'0 0.0
2018-Feb-20 02:58N 59°55' E 030°14'0 0.0
2018-Feb-20 02:28N 59°55' E 030°14'0 0.0
2018-Feb-20 01:57N 59°55' E 030°14'2 4.4
2018-Feb-20 01:30N 59°53' E 030°11'1 0.9
2018-Feb-20 00:51N 59°53' E 030°12'0 1.0
2018-Feb-20 00:30N 59°52' E 030°12'0 0.2
2018-Feb-20 00:00N 59°52' E 030°12'3 5.0
2018-Feb-19 23:29N 59°55' E 030°14'0 0.7
2018-Feb-19 22:59N 59°55' E 030°14'0 0.0
2018-Feb-19 22:29N 59°55' E 030°14'0 0.0
2018-Feb-19 21:59N 59°55' E 030°14'0 0.7
2018-Feb-19 21:30N 59°55' E 030°14'2 4.6
2018-Feb-19 21:00N 59°53' E 030°11'0 0.2
2018-Feb-19 20:25N 59°53' E 030°11'0 0.6
2018-Feb-19 19:57N 59°53' E 030°11'2 4.4
2018-Feb-19 19:30N 59°55' E 030°14'0 0.1
2018-Feb-19 18:58N 59°55' E 030°14'0 0.0
2018-Feb-19 18:28N 59°55' E 030°14'0 0.0
2018-Feb-19 17:58N 59°55' E 030°14'0 0.0
2018-Feb-19 17:28N 59°55' E 030°14'0 0.0
2018-Feb-19 16:58N 59°55' E 030°14'0 0.3
2018-Feb-19 16:30N 59°55' E 030°14'1 2.3
2018-Feb-19 16:00N 59°54' E 030°14'0 0.1
2018-Feb-19 15:30N 59°54' E 030°14'0 0.1
2018-Feb-19 15:01N 59°54' E 030°14'1 1.9
2018-Feb-19 14:29N 59°55' E 030°14'0 0.0
2018-Feb-19 13:59N 59°55' E 030°14'0 0.0
2018-Feb-19 13:28N 59°55' E 030°14'0 0.0
2018-Feb-19 12:58N 59°55' E 030°14'0 0.0
2018-Feb-19 12:26N 59°55' E 030°14'0 0.0
2018-Feb-19 11:58N 59°55' E 030°14'0 0.0
2018-Feb-19 11:28N 59°55' E 030°14'0 0.0
2018-Feb-19 10:55N 59°55' E 030°14'0 0.0
2018-Feb-19 10:28N 59°55' E 030°14'0 0.0
2018-Feb-19 09:58N 59°55' E 030°14'0 0.0
2018-Feb-19 09:28N 59°55' E 030°14'0 0.0
2018-Feb-19 08:58N 59°55' E 030°14'0 0.0
2018-Feb-19 08:23N 59°55' E 030°14'0 0.0
2018-Feb-19 07:59N 59°55' E 030°14'0 0.0
2018-Feb-19 07:29N 59°55' E 030°14'0 0.0
2018-Feb-19 06:58N 59°55' E 030°14'0 0.0
2018-Feb-19 06:25N 59°55' E 030°14'0 0.0
2018-Feb-19 05:59N 59°55' E 030°14'0 0.0
2018-Feb-19 05:31N 59°55' E 030°14'1 2.2
2018-Feb-19 04:59N 59°53' E 030°13'0 0.1
2018-Feb-19 04:30N 59°53' E 030°13'0 0.9
2018-Feb-19 03:59N 59°54' E 030°13'1 2.4
2018-Feb-19 03:29N 59°55' E 030°14'0 0.0
2018-Feb-19 02:56N 59°55' E 030°14'0 0.0
2018-Feb-19 02:29N 59°55' E 030°14'0 0.0
2018-Feb-19 01:59N 59°55' E 030°14'0 0.0
2018-Feb-19 01:29N 59°55' E 030°14'0 0.0
2018-Feb-19 00:59N 59°55' E 030°14'0 0.0
2018-Feb-19 00:29N 59°55' E 030°14'0 0.0
2018-Feb-18 23:59N 59°55' E 030°14'0 0.0
2018-Feb-18 23:29N 59°55' E 030°14'0 0.0
2018-Feb-18 22:59N 59°55' E 030°14'0 0.0
2018-Feb-18 22:29N 59°55' E 030°14'0 0.0
2018-Feb-18 21:59N 59°55' E 030°14'0 0.0
2018-Feb-18 21:29N 59°55' E 030°14'0 0.0
2018-Feb-18 20:59N 59°55' E 030°14'0 0.0
2018-Feb-18 20:29N 59°55' E 030°14'0 0.0
2018-Feb-18 19:53N 59°55' E 030°14'2 2.7
2018-Feb-18 19:10N 59°53' E 030°11'0 0.1
2018-Feb-18 18:48N 59°53' E 030°12'0 0.1
2018-Feb-18 18:25N 59°53' E 030°12'0 0.7
2018-Feb-18 17:57N 59°53' E 030°12'1 1.5
2018-Feb-18 17:21N 59°53' E 030°13'0 0.8
2018-Feb-18 16:57N 59°53' E 030°13'1 2.8
2018-Feb-18 16:30N 59°55' E 030°14'0 0.0
2018-Feb-18 16:00N 59°55' E 030°14'0 0.0
2018-Feb-18 15:30N 59°55' E 030°14'0 0.0
2018-Feb-18 15:00N 59°55' E 030°14'0 0.0
2018-Feb-18 14:30N 59°55' E 030°14'0 0.0
2018-Feb-18 14:00N 59°55' E 030°14'0 0.0
2018-Feb-18 13:30N 59°55' E 030°14'0 0.0
2018-Feb-18 13:00N 59°55' E 030°14'0 0.0
2018-Feb-18 12:30N 59°55' E 030°14'0 0.0
2018-Feb-18 11:57N 59°55' E 030°14'0 0.0
2018-Feb-18 11:30N 59°55' E 030°14'0 0.0
2018-Feb-18 11:00N 59°55' E 030°14'0 0.0
2018-Feb-18 10:27N 59°55' E 030°14'0 0.0
2018-Feb-18 10:00N 59°55' E 030°14'0 0.0
2018-Feb-18 09:30N 59°55' E 030°14'0 0.0
2018-Feb-18 09:00N 59°55' E 030°14'0 0.0
2018-Feb-18 08:30N 59°55' E 030°14'1 2.1
2018-Feb-18 08:00N 59°54' E 030°13'0 0.4
2018-Feb-18 07:30N 59°54' E 030°14'1 2.5
2018-Feb-18 07:00N 59°55' E 030°14'0 0.7
2018-Feb-18 06:29N 59°55' E 030°14'0 0.0
2018-Feb-18 05:59N 59°55' E 030°14'0 0.0
2018-Feb-18 05:29N 59°55' E 030°14'0 0.0
2018-Feb-18 04:59N 59°55' E 030°14'0 0.0
2018-Feb-18 04:29N 59°55' E 030°14'0 0.0
2018-Feb-18 03:59N 59°55' E 030°14'0 0.0
2018-Feb-18 03:29N 59°55' E 030°14'0 0.0
2018-Feb-18 02:59N 59°55' E 030°14'0 0.0
2018-Feb-18 02:29N 59°55' E 030°14'0 0.0
2018-Feb-18 01:59N 59°55' E 030°14'0 0.0
2018-Feb-18 01:29N 59°55' E 030°14'0 0.0
2018-Feb-18 00:59N 59°55' E 030°14'0 0.0
2018-Feb-18 00:29N 59°55' E 030°14'0 0.0
2018-Feb-17 23:59N 59°55' E 030°14'0 0.0
2018-Feb-17 23:29N 59°55' E 030°14'0 0.0
2018-Feb-17 22:59N 59°55' E 030°14'0 0.0
2018-Feb-17 22:29N 59°55' E 030°14'0 0.0
2018-Feb-17 21:59N 59°55' E 030°14'0 0.0
2018-Feb-17 21:29N 59°55' E 030°14'0 0.0
2018-Feb-17 20:59N 59°55' E 030°14'0 0.0
2018-Feb-17 20:29N 59°55' E 030°14'0 0.0
2018-Feb-17 19:59N 59°55' E 030°14'0 0.0
2018-Feb-17 19:29N 59°55' E 030°14'0 0.0
2018-Feb-17 18:59N 59°55' E 030°14'0 0.0
2018-Feb-17 18:29N 59°55' E 030°14'0 0.0
2018-Feb-17 17:59N 59°55' E 030°14'0 0.8
2018-Feb-17 17:30N 59°54' E 030°13'2 3.4
2018-Feb-17 16:59N 59°53' E 030°11'0 0.0
2018-Feb-17 16:30N 59°53' E 030°11'0 0.1
2018-Feb-17 15:51N 59°53' E 030°11'0 0.7
2018-Feb-17 15:30N 59°53' E 030°11'2 4.9
2018-Feb-17 15:00N 59°55' E 030°14'0 0.6
2018-Feb-17 14:28N 59°55' E 030°14'0 0.0
2018-Feb-17 13:58N 59°55' E 030°14'0 0.0
2018-Feb-17 13:28N 59°55' E 030°14'0 0.0
2018-Feb-17 13:00N 59°55' E 030°14'0 0.0
2018-Feb-17 12:30N 59°55' E 030°14'0 0.0
2018-Feb-17 12:00N 59°55' E 030°14'0 0.0
2018-Feb-17 11:30N 59°55' E 030°14'0 0.0
2018-Feb-17 11:00N 59°55' E 030°14'0 0.0
2018-Feb-17 10:30N 59°55' E 030°14'0 0.0
2018-Feb-17 10:00N 59°55' E 030°14'0 0.0
2018-Feb-17 09:27N 59°55' E 030°14'0 0.0
2018-Feb-17 08:54N 59°55' E 030°14'0 0.0
2018-Feb-17 08:31N 59°55' E 030°14'0 0.0
2018-Feb-17 08:01N 59°55' E 030°14'0 0.0
2018-Feb-17 07:31N 59°55' E 030°14'0 0.0
2018-Feb-17 06:58N 59°55' E 030°14'0 0.0
2018-Feb-17 06:25N 59°55' E 030°14'0 0.0
2018-Feb-17 06:01N 59°55' E 030°14'0 0.0
2018-Feb-17 05:28N 59°55' E 030°14'0 0.0
2018-Feb-17 04:58N 59°55' E 030°14'0 0.0
2018-Feb-17 04:28N 59°55' E 030°14'0 0.6
2018-Feb-17 04:00N 59°55' E 030°14'1 2.4
2018-Feb-17 03:26N 59°53' E 030°13'0 0.0
2018-Feb-17 03:00N 59°53' E 030°13'0 0.9
2018-Feb-17 02:30N 59°53' E 030°13'0 0.9
2018-Feb-17 01:59N 59°53' E 030°13'1 2.4
2018-Feb-17 01:30N 59°55' E 030°14'0 0.4
2018-Feb-17 00:59N 59°55' E 030°14'0 0.0
2018-Feb-17 00:29N 59°55' E 030°14'0 0.0
2018-Feb-16 23:59N 59°55' E 030°14'0 0.0
2018-Feb-16 23:29N 59°55' E 030°14'0 0.0
2018-Feb-16 22:59N 59°55' E 030°14'0 0.0
2018-Feb-16 22:29N 59°55' E 030°14'1 3.1
2018-Feb-16 22:00N 59°53' E 030°12'1 2.1
2018-Feb-16 21:30N 59°52' E 030°12'1 1.2
2018-Feb-16 21:00N 59°53' E 030°12'1 1.2
2018-Feb-16 20:30N 59°53' E 030°12'1 2.6
2018-Feb-16 20:00N 59°55' E 030°14'0 0.0
2018-Feb-16 19:30N 59°55' E 030°14'0 0.0
2018-Feb-16 19:00N 59°55' E 030°14'0 0.0
2018-Feb-16 18:30N 59°55' E 030°14'0 0.0
2018-Feb-16 18:00N 59°55' E 030°14'0 0.0
2018-Feb-16 17:27N 59°55' E 030°14'0 0.0
2018-Feb-16 17:00N 59°55' E 030°14'0 0.0
2018-Feb-16 16:24N 59°55' E 030°14'0 0.0
2018-Feb-16 16:00N 59°55' E 030°14'0 0.0
2018-Feb-16 15:30N 59°55' E 030°14'0 0.0
2018-Feb-16 15:00N 59°55' E 030°14'0 0.0
2018-Feb-16 14:30N 59°55' E 030°14'0 0.0
2018-Feb-16 14:00N 59°55' E 030°14'0 0.0
2018-Feb-16 13:30N 59°55' E 030°14'0 0.0
2018-Feb-16 13:00N 59°55' E 030°14'0 0.0
2018-Feb-16 12:30N 59°55' E 030°14'0 0.0
2018-Feb-16 12:00N 59°55' E 030°14'0 0.0
2018-Feb-16 11:30N 59°55' E 030°14'0 0.0
2018-Feb-16 11:00N 59°55' E 030°14'0 0.0
2018-Feb-16 10:30N 59°55' E 030°14'0 0.0
2018-Feb-16 10:00N 59°55' E 030°14'1 1.9
2018-Feb-16 09:28N 59°55' E 030°15'1 1.2
2018-Feb-16 08:59N 59°56' E 030°16'0 0.0
2018-Feb-16 08:29N 59°56' E 030°16'0 0.0
2018-Feb-16 07:59N 59°56' E 030°16'0 0.0
2018-Feb-16 07:29N 59°56' E 030°16'0 0.0
2018-Feb-16 07:00N 59°56' E 030°16'0 0.1
2018-Feb-16 06:29N 59°55' E 030°16'0 1.0
2018-Feb-16 06:00N 59°55' E 030°16'1 2.1
2018-Feb-16 05:28N 59°55' E 030°14'0 0.0
2018-Feb-16 04:55N 59°55' E 030°14'0 0.0
2018-Feb-16 04:28N 59°55' E 030°14'0 0.3
2018-Feb-16 04:00N 59°55' E 030°14'1 2.4
2018-Feb-16 03:29N 59°53' E 030°13'0 0.1
2018-Feb-16 02:56N 59°53' E 030°13'0 0.3
2018-Feb-16 02:30N 59°53' E 030°13'0 0.2
2018-Feb-16 01:59N 59°53' E 030°13'0 0.6
2018-Feb-16 01:25N 59°54' E 030°14'0 0.0
2018-Feb-16 00:58N 59°54' E 030°14'0 0.0
2018-Feb-16 00:28N 59°54' E 030°14'0 0.0
2018-Feb-15 23:58N 59°54' E 030°14'1 1.1
2018-Feb-15 23:30N 59°53' E 030°13'1 2.7
2018-Feb-15 23:00N 59°55' E 030°14'1 1.4
2018-Feb-15 22:29N 59°55' E 030°15'0 0.1
2018-Feb-15 22:00N 59°55' E 030°15'1 1.8
2018-Feb-15 21:28N 59°55' E 030°14'0 0.0
2018-Feb-15 20:58N 59°55' E 030°14'0 0.0
2018-Feb-15 20:28N 59°55' E 030°14'0 0.0
2018-Feb-15 19:58N 59°55' E 030°14'0 0.0
2018-Feb-15 19:28N 59°55' E 030°14'0 0.0
2018-Feb-15 18:58N 59°55' E 030°14'0 0.0
2018-Feb-15 18:28N 59°55' E 030°14'0 0.0
2018-Feb-15 17:58N 59°55' E 030°14'0 0.0
2018-Feb-15 17:28N 59°55' E 030°14'0 0.0
2018-Feb-15 16:58N 59°55' E 030°14'0 0.0
2018-Feb-15 16:28N 59°55' E 030°14'0 0.0
2018-Feb-15 15:58N 59°55' E 030°14'0 0.0
2018-Feb-15 15:28N 59°55' E 030°14'0 0.0
2018-Feb-15 14:58N 59°55' E 030°14'0 0.0
2018-Feb-15 14:28N 59°55' E 030°14'0 0.0
2018-Feb-15 13:58N 59°55' E 030°14'0 0.0
2018-Feb-15 13:28N 59°55' E 030°14'0 0.0
2018-Feb-15 12:58N 59°55' E 030°14'0 0.0
2018-Feb-15 12:28N 59°55' E 030°14'0 0.0
2018-Feb-15 11:58N 59°55' E 030°14'0 0.0
2018-Feb-15 11:25N 59°55' E 030°14'0 0.0
2018-Feb-15 10:58N 59°55' E 030°14'0 0.2
2018-Feb-15 10:30N 59°55' E 030°14'1 2.9
2018-Feb-15 10:00N 59°55' E 030°16'2 2.9
2018-Feb-15 09:29N 59°55' E 030°14'0 0.4
2018-Feb-15 08:59N 59°55' E 030°14'1 1.6
2018-Feb-15 08:26N 59°54' E 030°13'0 0.1
2018-Feb-15 08:00N 59°54' E 030°14'0 0.0
2018-Feb-15 07:30N 59°54' E 030°14'0 0.0
2018-Feb-15 06:58N 59°54' E 030°14'0 0.3
2018-Feb-15 06:29N 59°54' E 030°14'0 0.1
2018-Feb-15 05:59N 59°54' E 030°14'0 0.1
2018-Feb-15 05:30N 59°54' E 030°14'0 0.7
2018-Feb-15 05:00N 59°53' E 030°13'0 0.4
2018-Feb-15 04:29N 59°54' E 030°14'1 1.8
2018-Feb-15 04:00N 59°54' E 030°14'0 0.3
2018-Feb-15 03:28N 59°55' E 030°14'0 0.0
2018-Feb-15 02:58N 59°55' E 030°14'0 0.0
2018-Feb-15 02:28N 59°55' E 030°14'0 0.0
2018-Feb-15 01:58N 59°55' E 030°14'0 0.0
2018-Feb-15 01:28N 59°55' E 030°14'0 0.0
2018-Feb-15 00:58N 59°55' E 030°14'0 0.0
2018-Feb-15 00:28N 59°55' E 030°14'0 0.0
2018-Feb-14 23:58N 59°55' E 030°14'0 0.0
2018-Feb-14 23:28N 59°55' E 030°14'0 0.0
2018-Feb-14 22:58N 59°55' E 030°14'0 0.0
2018-Feb-14 22:28N 59°55' E 030°14'0 0.0
2018-Feb-14 21:58N 59°55' E 030°14'0 0.0
2018-Feb-14 21:28N 59°55' E 030°14'0 0.0
2018-Feb-14 20:58N 59°55' E 030°14'0 0.0
2018-Feb-14 20:28N 59°55' E 030°14'0 0.0
2018-Feb-14 19:58N 59°55' E 030°14'0 0.0
2018-Feb-14 19:25N 59°55' E 030°14'0 0.0
2018-Feb-14 18:58N 59°55' E 030°14'0 0.0
2018-Feb-14 18:28N 59°55' E 030°14'0 0.0
2018-Feb-14 17:58N 59°55' E 030°14'0 0.0
2018-Feb-14 17:28N 59°55' E 030°14'0 0.0
2018-Feb-14 16:58N 59°55' E 030°14'0 0.0
2018-Feb-14 16:28N 59°55' E 030°14'0 0.0
2018-Feb-14 15:58N 59°55' E 030°14'0 0.0
2018-Feb-14 15:28N 59°55' E 030°14'0 0.0
2018-Feb-14 14:58N 59°55' E 030°14'0 0.0
2018-Feb-14 14:28N 59°55' E 030°14'0 0.0
2018-Feb-14 13:58N 59°55' E 030°14'0 0.0
2018-Feb-14 13:28N 59°55' E 030°14'0 0.0
2018-Feb-14 12:58N 59°55' E 030°14'0 0.0
2018-Feb-14 12:28N 59°55' E 030°14'0 0.0
2018-Feb-14 11:58N 59°55' E 030°14'0 0.0
2018-Feb-14 11:28N 59°55' E 030°14'0 0.0
2018-Feb-14 10:58N 59°55' E 030°14'0 0.0
2018-Feb-14 10:28N 59°55' E 030°14'0 0.1
2018-Feb-14 10:00N 59°55' E 030°14'2 3.0
2018-Feb-14 09:19N 59°53' E 030°12'0 0.0
2018-Feb-14 08:56N 59°53' E 030°12'1 1.5
2018-Feb-14 08:27N 59°53' E 030°12'1 3.3
2018-Feb-14 08:01N 59°55' E 030°14'0 0.5
2018-Feb-14 07:30N 59°55' E 030°14'0 0.0
2018-Feb-14 07:00N 59°55' E 030°14'0 0.0
2018-Feb-14 06:30N 59°55' E 030°14'0 0.0
2018-Feb-14 06:00N 59°55' E 030°14'0 0.0
2018-Feb-14 05:30N 59°55' E 030°14'0 0.0
2018-Feb-14 04:59N 59°55' E 030°14'2 4.0
2018-Feb-14 04:30N 59°53' E 030°11'1 1.6
2018-Feb-14 03:57N 59°52' E 030°12'0 0.0
2018-Feb-14 03:30N 59°52' E 030°12'2 3.4
2018-Feb-14 03:00N 59°54' E 030°13'1 1.0
2018-Feb-14 02:28N 59°55' E 030°14'0 0.0
2018-Feb-14 01:52N 59°55' E 030°14'0 0.0
2018-Feb-14 01:25N 59°55' E 030°14'0 0.0
2018-Feb-14 00:58N 59°55' E 030°14'0 0.0
2018-Feb-14 00:28N 59°55' E 030°14'0 0.0
2018-Feb-13 23:58N 59°55' E 030°14'0 0.0
2018-Feb-13 23:28N 59°55' E 030°14'0 0.0
2018-Feb-13 22:58N 59°55' E 030°14'0 0.0
2018-Feb-13 22:28N 59°55' E 030°14'0 0.0
2018-Feb-13 21:58N 59°55' E 030°14'0 0.0
2018-Feb-13 21:28N 59°55' E 030°14'0 0.0
2018-Feb-13 20:58N 59°55' E 030°14'0 0.0
2018-Feb-13 20:25N 59°55' E 030°14'0 0.0
2018-Feb-13 19:55N 59°55' E 030°14'0 0.0
2018-Feb-13 19:28N 59°55' E 030°14'0 0.0
2018-Feb-13 18:58N 59°55' E 030°14'0 0.0
2018-Feb-13 18:28N 59°55' E 030°14'0 0.0
2018-Feb-13 17:58N 59°55' E 030°14'0 0.0
2018-Feb-13 17:28N 59°55' E 030°14'0 0.0
2018-Feb-13 16:58N 59°55' E 030°14'0 0.0
2018-Feb-13 16:28N 59°55' E 030°14'0 0.0
2018-Feb-13 15:58N 59°55' E 030°14'0 0.0
2018-Feb-13 15:28N 59°55' E 030°14'0 0.0
2018-Feb-13 14:58N 59°55' E 030°14'0 0.0
2018-Feb-13 14:28N 59°55' E 030°14'0 0.0
2018-Feb-13 13:58N 59°55' E 030°14'0 0.0
2018-Feb-13 13:28N 59°55' E 030°14'0 0.0
2018-Feb-13 12:58N 59°55' E 030°14'0 0.0
2018-Feb-13 12:28N 59°55' E 030°14'0 0.0
2018-Feb-13 11:58N 59°55' E 030°14'0 0.0
2018-Feb-13 11:25N 59°55' E 030°14'0 0.0
2018-Feb-13 10:58N 59°55' E 030°14'0 0.0
2018-Feb-13 10:28N 59°55' E 030°14'0 0.0
2018-Feb-13 09:58N 59°55' E 030°14'0 0.3
2018-Feb-13 09:30N 59°55' E 030°14'1 2.0
2018-Feb-13 09:00N 59°54' E 030°14'0 0.0
2018-Feb-13 08:28N 59°54' E 030°14'1 2.2
2018-Feb-13 08:00N 59°55' E 030°14'0 0.3
2018-Feb-13 07:22N 59°55' E 030°14'0 0.0
2018-Feb-13 06:55N 59°55' E 030°14'0 0.0
2018-Feb-13 06:28N 59°55' E 030°14'0 0.0
2018-Feb-13 05:58N 59°55' E 030°14'0 0.0
2018-Feb-13 05:28N 59°55' E 030°14'0 0.0
2018-Feb-13 04:58N 59°55' E 030°14'0 0.0
2018-Feb-13 04:28N 59°55' E 030°14'0 0.0
2018-Feb-13 03:58N 59°55' E 030°14'0 0.0
2018-Feb-13 03:29N 59°55' E 030°14'2 4.0
2018-Feb-13 03:00N 59°53' E 030°11'0 0.7
2018-Feb-13 02:30N 59°53' E 030°12'0 0.0
2018-Feb-13 02:00N 59°53' E 030°12'0 0.7
2018-Feb-13 01:30N 59°53' E 030°11'2 4.3
2018-Feb-13 01:00N 59°55' E 030°14'0 0.2
2018-Feb-13 00:25N 59°55' E 030°14'0 0.0
2018-Feb-12 23:58N 59°55' E 030°14'0 0.0
2018-Feb-12 23:28N 59°55' E 030°14'0 0.0
2018-Feb-12 22:58N 59°55' E 030°14'0 0.0
2018-Feb-12 22:28N 59°55' E 030°14'0 0.0
2018-Feb-12 21:58N 59°55' E 030°14'0 0.0
2018-Feb-12 21:28N 59°55' E 030°14'0 0.0
2018-Feb-12 20:52N 59°55' E 030°14'0 0.0
2018-Feb-12 20:28N 59°55' E 030°14'0 0.0
2018-Feb-12 19:58N 59°55' E 030°14'0 0.0
2018-Feb-12 19:28N 59°55' E 030°14'0 0.0
2018-Feb-12 18:58N 59°55' E 030°14'0 0.0
2018-Feb-12 18:28N 59°55' E 030°14'0 0.4
2018-Feb-12 18:00N 59°54' E 030°14'2 3.8
2018-Feb-12 17:27N 59°53' E 030°12'0 0.3
2018-Feb-12 16:56N 59°52' E 030°12'0 0.0
2018-Feb-12 16:19N 59°52' E 030°12'0 0.0
2018-Feb-12 16:00N 59°52' E 030°12'0 0.4
2018-Feb-12 15:07N 59°52' E 030°12'0 0.1
2018-Feb-12 14:52N 59°52' E 030°12'1 1.7
2018-Feb-12 14:30N 59°53' E 030°12'1 2.5
2018-Feb-12 14:01N 59°54' E 030°13'1 1.6
2018-Feb-12 13:29N 59°55' E 030°14'0 0.0
2018-Feb-12 12:59N 59°55' E 030°14'0 0.0
2018-Feb-12 12:29N 59°55' E 030°14'0 0.0
2018-Feb-12 11:59N 59°55' E 030°14'0 0.0
2018-Feb-12 11:26N 59°55' E 030°14'0 0.0
2018-Feb-12 10:56N 59°55' E 030°14'0 0.0
2018-Feb-12 10:29N 59°55' E 030°14'0 0.0
2018-Feb-12 09:59N 59°55' E 030°14'0 0.0
2018-Feb-12 09:29N 59°55' E 030°14'0 0.0
2018-Feb-12 08:59N 59°55' E 030°14'0 0.0
2018-Feb-12 08:29N 59°55' E 030°14'0 0.0
2018-Feb-12 07:59N 59°55' E 030°14'0 0.0
2018-Feb-12 07:30N 59°55' E 030°14'2 3.7
2018-Feb-12 06:56N 59°53' E 030°11'0 0.1
2018-Feb-12 06:30N 59°53' E 030°11'0 0.1
2018-Feb-12 05:57N 59°53' E 030°11'0 0.3
2018-Feb-12 05:30N 59°53' E 030°12'1 1.1
2018-Feb-12 05:00N 59°53' E 030°11'0 0.6
2018-Feb-12 04:21N 59°53' E 030°10'0 0.5
2018-Feb-12 03:58N 59°53' E 030°10'2 4.8
2018-Feb-12 03:29N 59°54' E 030°14'0 0.3
2018-Feb-12 02:52N 59°55' E 030°14'0 0.0
2018-Feb-12 02:28N 59°55' E 030°14'0 0.0
2018-Feb-12 01:58N 59°55' E 030°14'0 0.0
2018-Feb-12 01:28N 59°55' E 030°14'0 0.4
2018-Feb-12 01:00N 59°55' E 030°14'2 4.0
2018-Feb-12 00:28N 59°53' E 030°11'0 0.2
2018-Feb-11 23:59N 59°53' E 030°12'0 0.8
2018-Feb-11 23:30N 59°53' E 030°11'1 1.2
2018-Feb-11 23:01N 59°53' E 030°12'1 1.6
2018-Feb-11 22:30N 59°54' E 030°13'0 0.2
2018-Feb-11 21:58N 59°54' E 030°14'0 0.0
2018-Feb-11 21:28N 59°54' E 030°14'1 2.6
2018-Feb-11 21:00N 59°53' E 030°12'0 0.1
2018-Feb-11 20:30N 59°53' E 030°12'2 4.3
2018-Feb-11 20:00N 59°55' E 030°14'0 0.4
2018-Feb-11 19:28N 59°55' E 030°14'0 0.0
2018-Feb-11 18:55N 59°55' E 030°14'0 0.0
2018-Feb-11 18:28N 59°55' E 030°14'0 0.0
2018-Feb-11 17:52N 59°55' E 030°14'  
Track history (hours):
 
Tides and Currents Weather Stations Pressure Air Temp Water Temp Dewpoint Dewpoint Depression Visibility Wind Speed Wind Dir Waves Ship Positions

Typhoon

Last reported at 2018-Feb-21 17:29 UTC. Time now 2018-Feb-21 17:32 UTC.
Position N 59°53' E 030°12'.

Length 30 m.

Type: Tug. MMSI: 273317680.

Date/timePositionNaut miles runAvg speedWind from/ knotsBaromVisibWave heightAir tempDewpointWater temp
2018-Feb-21 17:29N 59°53' E 030°12'0 0.6
2018-Feb-21 16:54N 59°52' E 030°12'0 0.1
2018-Feb-21 16:30N 59°52' E 030°12'3 5.3
2018-Feb-21 16:00N 59°55' E 030°14'0 0.7
2018-Feb-21 15:29N 59°55' E 030°14'0 0.0
2018-Feb-21 14:56N 59°55' E 030°14'0 0.0
2018-Feb-21 14:29N 59°55' E 030°14'0 0.0
2018-Feb-21 13:59N 59°55' E 030°14'0 0.0
2018-Feb-21 13:29N 59°55' E 030°14'0 0.0
2018-Feb-21 12:59N 59°55' E 030°14'0 0.0
2018-Feb-21 12:26N 59°55' E 030°14'0 0.0
2018-Feb-21 11:59N 59°55' E 030°14'0 0.0
2018-Feb-21 11:29N 59°55' E 030°14'0 0.0
2018-Feb-21 10:59N 59°55' E 030°14'0 0.0
2018-Feb-21 10:29N 59°55' E 030°14'0 0.0
2018-Feb-21 09:59N 59°55' E 030°14'0 0.0
2018-Feb-21 09:29N 59°55' E 030°14'0 0.0
2018-Feb-21 08:59N 59°55' E 030°14'0 0.0
2018-Feb-21 08:29N 59°55' E 030°14'2 4.5
2018-Feb-21 08:00N 59°53' E 030°10'0 0.5
2018-Feb-21 07:30N 59°53' E 030°10'0 0.3
2018-Feb-21 06:53N 59°53' E 030°10'0 0.0
2018-Feb-21 06:26N 59°53' E 030°10'0 0.2
2018-Feb-21 06:00N 59°53' E 030°10'2 3.2
2018-Feb-21 05:29N 59°52' E 030°12'0 0.1
2018-Feb-21 05:00N 59°52' E 030°12'0 0.0
2018-Feb-21 04:29N 59°52' E 030°12'0 0.0
2018-Feb-21 03:52N 59°52' E 030°12'0 0.4
2018-Feb-21 02:53N 59°53' E 030°12'0 0.0
2018-Feb-21 02:14N 59°53' E 030°12'0 0.0
2018-Feb-21 01:47N 59°53' E 030°12'0 0.0
2018-Feb-21 01:19N 59°53' E 030°12'0 0.6
2018-Feb-21 01:00N 59°53' E 030°11'0 0.1
2018-Feb-21 00:30N 59°53' E 030°11'0 0.7
2018-Feb-20 23:58N 59°52' E 030°12'1 1.6
2018-Feb-20 23:30N 59°53' E 030°11'2 4.4
2018-Feb-20 23:00N 59°55' E 030°14'0 0.4
2018-Feb-20 22:28N 59°55' E 030°14'0 0.0
2018-Feb-20 21:58N 59°55' E 030°14'0 0.0
2018-Feb-20 21:28N 59°55' E 030°14'0 0.0
2018-Feb-20 20:55N 59°55' E 030°14'0 0.0
2018-Feb-20 20:28N 59°55' E 030°14'0 0.0
2018-Feb-20 19:58N 59°55' E 030°14'0 0.0
2018-Feb-20 19:25N 59°55' E 030°14'0 0.0
2018-Feb-20 18:58N 59°55' E 030°14'0 0.0
2018-Feb-20 18:28N 59°55' E 030°14'0 0.0
2018-Feb-20 17:58N 59°55' E 030°14'0 0.5
2018-Feb-20 17:30N 59°54' E 030°14'2 3.3
2018-Feb-20 16:52N 59°52' E 030°12'0 0.0
2018-Feb-20 16:28N 59°52' E 030°12'0 0.2
2018-Feb-20 15:57N 59°52' E 030°12'1 1.8
2018-Feb-20 15:30N 59°53' E 030°12'2 2.8
2018-Feb-20 14:58N 59°55' E 030°14'0 0.0
2018-Feb-20 14:28N 59°55' E 030°14'0 0.0
2018-Feb-20 13:58N 59°55' E 030°14'0 0.0
2018-Feb-20 13:28N 59°55' E 030°14'0 0.0
2018-Feb-20 12:58N 59°55' E 030°14'0 0.0
2018-Feb-20 12:28N 59°55' E 030°14'0 0.0
2018-Feb-20 11:58N 59°55' E 030°14'0 0.0
2018-Feb-20 11:28N 59°55' E 030°14'0 0.0
2018-Feb-20 10:55N 59°55' E 030°14'0 0.0
2018-Feb-20 10:28N 59°55' E 030°14'0 0.0
2018-Feb-20 09:55N 59°55' E 030°14'0 0.0
2018-Feb-20 09:28N 59°55' E 030°14'0 0.0
2018-Feb-20 08:58N 59°55' E 030°14'0 0.0
2018-Feb-20 08:28N 59°55' E 030°14'0 0.0
2018-Feb-20 07:58N 59°55' E 030°14'0 0.0
2018-Feb-20 07:28N 59°55' E 030°14'0 0.0
2018-Feb-20 06:58N 59°55' E 030°14'0 0.0
2018-Feb-20 06:28N 59°55' E 030°14'0 0.0
2018-Feb-20 05:58N 59°55' E 030°14'0 0.0
2018-Feb-20 05:28N 59°55' E 030°14'0 0.0
2018-Feb-20 04:58N 59°55' E 030°14'0 0.0
2018-Feb-20 04:28N 59°55' E 030°14'0 0.0
2018-Feb-20 03:58N 59°55' E 030°14'0 0.0
2018-Feb-20 03:28N 59°55' E 030°14'0 0.0
2018-Feb-20 02:58N 59°55' E 030°14'0 0.0
2018-Feb-20 02:28N 59°55' E 030°14'0 0.0
2018-Feb-20 01:57N 59°55' E 030°14'2 4.4
2018-Feb-20 01:30N 59°53' E 030°11'1 0.9
2018-Feb-20 00:51N 59°53' E 030°12'0 1.0
2018-Feb-20 00:30N 59°52' E 030°12'0 0.2
2018-Feb-20 00:00N 59°52' E 030°12'3 5.0
2018-Feb-19 23:29N 59°55' E 030°14'0 0.7
2018-Feb-19 22:59N 59°55' E 030°14'0 0.0
2018-Feb-19 22:29N 59°55' E 030°14'0 0.0
2018-Feb-19 21:59N 59°55' E 030°14'0 0.7
2018-Feb-19 21:30N 59°55' E 030°14'2 4.6
2018-Feb-19 21:00N 59°53' E 030°11'0 0.2
2018-Feb-19 20:25N 59°53' E 030°11'0 0.6
2018-Feb-19 19:57N 59°53' E 030°11'2 4.4
2018-Feb-19 19:30N 59°55' E 030°14'0 0.1
2018-Feb-19 18:58N 59°55' E 030°14'0 0.0
2018-Feb-19 18:28N 59°55' E 030°14'0 0.0
2018-Feb-19 17:58N 59°55' E 030°14'0 0.0
2018-Feb-19 17:28N 59°55' E 030°14'0 0.0
2018-Feb-19 16:58N 59°55' E 030°14'0 0.3
2018-Feb-19 16:30N 59°55' E 030°14'1 2.3
2018-Feb-19 16:00N 59°54' E 030°14'0 0.1
2018-Feb-19 15:30N 59°54' E 030°14'0 0.1
2018-Feb-19 15:01N 59°54' E 030°14'1 1.9
2018-Feb-19 14:29N 59°55' E 030°14'0 0.0
2018-Feb-19 13:59N 59°55' E 030°14'0 0.0
2018-Feb-19 13:28N 59°55' E 030°14'0 0.0
2018-Feb-19 12:58N 59°55' E 030°14'0 0.0
2018-Feb-19 12:26N 59°55' E 030°14'0 0.0
2018-Feb-19 11:58N 59°55' E 030°14'0 0.0
2018-Feb-19 11:28N 59°55' E 030°14'0 0.0
2018-Feb-19 10:55N 59°55' E 030°14'0 0.0
2018-Feb-19 10:28N 59°55' E 030°14'0 0.0
2018-Feb-19 09:58N 59°55' E 030°14'0 0.0
2018-Feb-19 09:28N 59°55' E 030°14'0 0.0
2018-Feb-19 08:58N 59°55' E 030°14'0 0.0
2018-Feb-19 08:23N 59°55' E 030°14'0 0.0
2018-Feb-19 07:59N 59°55' E 030°14'0 0.0
2018-Feb-19 07:29N 59°55' E 030°14'0 0.0
2018-Feb-19 06:58N 59°55' E 030°14'0 0.0
2018-Feb-19 06:25N 59°55' E 030°14'0 0.0
2018-Feb-19 05:59N 59°55' E 030°14'0 0.0
2018-Feb-19 05:31N 59°55' E 030°14'1 2.2
2018-Feb-19 04:59N 59°53' E 030°13'0 0.1
2018-Feb-19 04:30N 59°53' E 030°13'0 0.9
2018-Feb-19 03:59N 59°54' E 030°13'1 2.4
2018-Feb-19 03:29N 59°55' E 030°14'0 0.0
2018-Feb-19 02:56N 59°55' E 030°14'0 0.0
2018-Feb-19 02:29N 59°55' E 030°14'0 0.0
2018-Feb-19 01:59N 59°55' E 030°14'0 0.0
2018-Feb-19 01:29N 59°55' E 030°14'0 0.0
2018-Feb-19 00:59N 59°55' E 030°14'0 0.0
2018-Feb-19 00:29N 59°55' E 030°14'0 0.0
2018-Feb-18 23:59N 59°55' E 030°14'0 0.0
2018-Feb-18 23:29N 59°55' E 030°14'0 0.0
2018-Feb-18 22:59N 59°55' E 030°14'0 0.0
2018-Feb-18 22:29N 59°55' E 030°14'0 0.0
2018-Feb-18 21:59N 59°55' E 030°14'0 0.0
2018-Feb-18 21:29N 59°55' E 030°14'0 0.0
2018-Feb-18 20:59N 59°55' E 030°14'0 0.0
2018-Feb-18 20:29N 59°55' E 030°14'0 0.0
2018-Feb-18 19:53N 59°55' E 030°14'2 2.7
2018-Feb-18 19:10N 59°53' E 030°11'0 0.1
2018-Feb-18 18:48N 59°53' E 030°12'0 0.1
2018-Feb-18 18:25N 59°53' E 030°12'0 0.7
2018-Feb-18 17:57N 59°53' E 030°12'1 1.5
2018-Feb-18 17:21N 59°53' E 030°13'0 0.8
2018-Feb-18 16:57N 59°53' E 030°13'1 2.8
2018-Feb-18 16:30N 59°55' E 030°14'0 0.0
2018-Feb-18 16:00N 59°55' E 030°14'0 0.0
2018-Feb-18 15:30N 59°55' E 030°14'0 0.0
2018-Feb-18 15:00N 59°55' E 030°14'0 0.0
2018-Feb-18 14:30N 59°55' E 030°14'0 0.0
2018-Feb-18 14:00N 59°55' E 030°14'0 0.0
2018-Feb-18 13:30N 59°55' E 030°14'0 0.0
2018-Feb-18 13:00N 59°55' E 030°14'0 0.0
2018-Feb-18 12:30N 59°55' E 030°14'0 0.0
2018-Feb-18 11:57N 59°55' E 030°14'0 0.0
2018-Feb-18 11:30N 59°55' E 030°14'0 0.0
2018-Feb-18 11:00N 59°55' E 030°14'0 0.0
2018-Feb-18 10:27N 59°55' E 030°14'0 0.0
2018-Feb-18 10:00N 59°55' E 030°14'0 0.0
2018-Feb-18 09:30N 59°55' E 030°14'0 0.0
2018-Feb-18 09:00N 59°55' E 030°14'0 0.0
2018-Feb-18 08:30N 59°55' E 030°14'1 2.1
2018-Feb-18 08:00N 59°54' E 030°13'0 0.4
2018-Feb-18 07:30N 59°54' E 030°14'1 2.5
2018-Feb-18 07:00N 59°55' E 030°14'0 0.7
2018-Feb-18 06:29N 59°55' E 030°14'0 0.0
2018-Feb-18 05:59N 59°55' E 030°14'0 0.0
2018-Feb-18 05:29N 59°55' E 030°14'0 0.0
2018-Feb-18 04:59N 59°55' E 030°14'0 0.0
2018-Feb-18 04:29N 59°55' E 030°14'0 0.0
2018-Feb-18 03:59N 59°55' E 030°14'0 0.0
2018-Feb-18 03:29N 59°55' E 030°14'0 0.0
2018-Feb-18 02:59N 59°55' E 030°14'0 0.0
2018-Feb-18 02:29N 59°55' E 030°14'0 0.0
2018-Feb-18 01:59N 59°55' E 030°14'0 0.0
2018-Feb-18 01:29N 59°55' E 030°14'0 0.0
2018-Feb-18 00:59N 59°55' E 030°14'0 0.0
2018-Feb-18 00:29N 59°55' E 030°14'0 0.0
2018-Feb-17 23:59N 59°55' E 030°14'0 0.0
2018-Feb-17 23:29N 59°55' E 030°14'0 0.0
2018-Feb-17 22:59N 59°55' E 030°14'0 0.0
2018-Feb-17 22:29N 59°55' E 030°14'0 0.0
2018-Feb-17 21:59N 59°55' E 030°14'0 0.0
2018-Feb-17 21:29N 59°55' E 030°14'0 0.0
2018-Feb-17 20:59N 59°55' E 030°14'0 0.0
2018-Feb-17 20:29N 59°55' E 030°14'0 0.0
2018-Feb-17 19:59N 59°55' E 030°14'0 0.0
2018-Feb-17 19:29N 59°55' E 030°14'0 0.0
2018-Feb-17 18:59N 59°55' E 030°14'0 0.0
2018-Feb-17 18:29N 59°55' E 030°14'0 0.0
2018-Feb-17 17:59N 59°55' E 030°14'0 0.8
2018-Feb-17 17:30N 59°54' E 030°13'2 3.4
2018-Feb-17 16:59N 59°53' E 030°11'0 0.0
2018-Feb-17 16:30N 59°53' E 030°11'0 0.1
2018-Feb-17 15:51N 59°53' E 030°11'0 0.7
2018-Feb-17 15:30N 59°53' E 030°11'2 4.9
2018-Feb-17 15:00N 59°55' E 030°14'0 0.6
2018-Feb-17 14:28N 59°55' E 030°14'0 0.0
2018-Feb-17 13:58N 59°55' E 030°14'0 0.0
2018-Feb-17 13:28N 59°55' E 030°14'0 0.0
2018-Feb-17 13:00N 59°55' E 030°14'0 0.0
2018-Feb-17 12:30N 59°55' E 030°14'0 0.0
2018-Feb-17 12:00N 59°55' E 030°14'0 0.0
2018-Feb-17 11:30N 59°55' E 030°14'0 0.0
2018-Feb-17 11:00N 59°55' E 030°14'0 0.0
2018-Feb-17 10:30N 59°55' E 030°14'0 0.0
2018-Feb-17 10:00N 59°55' E 030°14'0 0.0
2018-Feb-17 09:27N 59°55' E 030°14'0 0.0
2018-Feb-17 08:54N 59°55' E 030°14'0 0.0
2018-Feb-17 08:31N 59°55' E 030°14'0 0.0
2018-Feb-17 08:01N 59°55' E 030°14'0 0.0
2018-Feb-17 07:31N 59°55' E 030°14'0 0.0
2018-Feb-17 06:58N 59°55' E 030°14'0 0.0
2018-Feb-17 06:25N 59°55' E 030°14'0 0.0
2018-Feb-17 06:01N 59°55' E 030°14'0 0.0
2018-Feb-17 05:28N 59°55' E 030°14'0 0.0
2018-Feb-17 04:58N 59°55' E 030°14'0 0.0
2018-Feb-17 04:28N 59°55' E 030°14'0 0.6
2018-Feb-17 04:00N 59°55' E 030°14'1 2.4
2018-Feb-17 03:26N 59°53' E 030°13'0 0.0
2018-Feb-17 03:00N 59°53' E 030°13'0 0.9
2018-Feb-17 02:30N 59°53' E 030°13'0 0.9
2018-Feb-17 01:59N 59°53' E 030°13'1 2.4
2018-Feb-17 01:30N 59°55' E 030°14'0 0.4
2018-Feb-17 00:59N 59°55' E 030°14'0 0.0
2018-Feb-17 00:29N 59°55' E 030°14'0 0.0
2018-Feb-16 23:59N 59°55' E 030°14'0 0.0
2018-Feb-16 23:29N 59°55' E 030°14'0 0.0
2018-Feb-16 22:59N 59°55' E 030°14'0 0.0
2018-Feb-16 22:29N 59°55' E 030°14'1 3.1
2018-Feb-16 22:00N 59°53' E 030°12'1 2.1
2018-Feb-16 21:30N 59°52' E 030°12'1 1.2
2018-Feb-16 21:00N 59°53' E 030°12'1 1.2
2018-Feb-16 20:30N 59°53' E 030°12'1 2.6
2018-Feb-16 20:00N 59°55' E 030°14'0 0.0
2018-Feb-16 19:30N 59°55' E 030°14'0 0.0
2018-Feb-16 19:00N 59°55' E 030°14'0 0.0
2018-Feb-16 18:30N 59°55' E 030°14'0 0.0
2018-Feb-16 18:00N 59°55' E 030°14'0 0.0
2018-Feb-16 17:27N 59°55' E 030°14'0 0.0
2018-Feb-16 17:00N 59°55' E 030°14'0 0.0
2018-Feb-16 16:24N 59°55' E 030°14'0 0.0
2018-Feb-16 16:00N 59°55' E 030°14'0 0.0
2018-Feb-16 15:30N 59°55' E 030°14'0 0.0
2018-Feb-16 15:00N 59°55' E 030°14'0 0.0
2018-Feb-16 14:30N 59°55' E 030°14'0 0.0
2018-Feb-16 14:00N 59°55' E 030°14'0 0.0
2018-Feb-16 13:30N 59°55' E 030°14'0 0.0
2018-Feb-16 13:00N 59°55' E 030°14'0 0.0
2018-Feb-16 12:30N 59°55' E 030°14'0 0.0
2018-Feb-16 12:00N 59°55' E 030°14'0 0.0
2018-Feb-16 11:30N 59°55' E 030°14'0 0.0
2018-Feb-16 11:00N 59°55' E 030°14'0 0.0
2018-Feb-16 10:30N 59°55' E 030°14'0 0.0
2018-Feb-16 10:00N 59°55' E 030°14'1 1.9
2018-Feb-16 09:28N 59°55' E 030°15'1 1.2
2018-Feb-16 08:59N 59°56' E 030°16'0 0.0
2018-Feb-16 08:29N 59°56' E 030°16'0 0.0
2018-Feb-16 07:59N 59°56' E 030°16'0 0.0
2018-Feb-16 07:29N 59°56' E 030°16'0 0.0
2018-Feb-16 07:00N 59°56' E 030°16'0 0.1
2018-Feb-16 06:29N 59°55' E 030°16'0 1.0
2018-Feb-16 06:00N 59°55' E 030°16'1 2.1
2018-Feb-16 05:28N 59°55' E 030°14'0 0.0
2018-Feb-16 04:55N 59°55' E 030°14'0 0.0
2018-Feb-16 04:28N 59°55' E 030°14'0 0.3
2018-Feb-16 04:00N 59°55' E 030°14'1 2.4
2018-Feb-16 03:29N 59°53' E 030°13'0 0.1
2018-Feb-16 02:56N 59°53' E 030°13'0 0.3
2018-Feb-16 02:30N 59°53' E 030°13'0 0.2
2018-Feb-16 01:59N 59°53' E 030°13'0 0.6
2018-Feb-16 01:25N 59°54' E 030°14'0 0.0
2018-Feb-16 00:58N 59°54' E 030°14'0 0.0
2018-Feb-16 00:28N 59°54' E 030°14'0 0.0
2018-Feb-15 23:58N 59°54' E 030°14'1 1.1
2018-Feb-15 23:30N 59°53' E 030°13'1 2.7
2018-Feb-15 23:00N 59°55' E 030°14'1 1.4
2018-Feb-15 22:29N 59°55' E 030°15'0 0.1
2018-Feb-15 22:00N 59°55' E 030°15'1 1.8
2018-Feb-15 21:28N 59°55' E 030°14'0 0.0
2018-Feb-15 20:58N 59°55' E 030°14'0 0.0
2018-Feb-15 20:28N 59°55' E 030°14'0 0.0
2018-Feb-15 19:58N 59°55' E 030°14'0 0.0
2018-Feb-15 19:28N 59°55' E 030°14'0 0.0
2018-Feb-15 18:58N 59°55' E 030°14'0 0.0
2018-Feb-15 18:28N 59°55' E 030°14'0 0.0
2018-Feb-15 17:58N 59°55' E 030°14'0 0.0
2018-Feb-15 17:28N 59°55' E 030°14'0 0.0
2018-Feb-15 16:58N 59°55' E 030°14'0 0.0
2018-Feb-15 16:28N 59°55' E 030°14'0 0.0
2018-Feb-15 15:58N 59°55' E 030°14'0 0.0
2018-Feb-15 15:28N 59°55' E 030°14'0 0.0
2018-Feb-15 14:58N 59°55' E 030°14'0 0.0
2018-Feb-15 14:28N 59°55' E 030°14'0 0.0
2018-Feb-15 13:58N 59°55' E 030°14'0 0.0
2018-Feb-15 13:28N 59°55' E 030°14'0 0.0
2018-Feb-15 12:58N 59°55' E 030°14'0 0.0
2018-Feb-15 12:28N 59°55' E 030°14'0 0.0
2018-Feb-15 11:58N 59°55' E 030°14'0 0.0
2018-Feb-15 11:25N 59°55' E 030°14'0 0.0
2018-Feb-15 10:58N 59°55' E 030°14'0 0.2
2018-Feb-15 10:30N 59°55' E 030°14'1 2.9
2018-Feb-15 10:00N 59°55' E 030°16'2 2.9
2018-Feb-15 09:29N 59°55' E 030°14'0 0.4
2018-Feb-15 08:59N 59°55' E 030°14'1 1.6
2018-Feb-15 08:26N 59°54' E 030°13'0 0.1
2018-Feb-15 08:00N 59°54' E 030°14'0 0.0
2018-Feb-15 07:30N 59°54' E 030°14'0 0.0
2018-Feb-15 06:58N 59°54' E 030°14'0 0.3
2018-Feb-15 06:29N 59°54' E 030°14'0 0.1
2018-Feb-15 05:59N 59°54' E 030°14'0 0.1
2018-Feb-15 05:30N 59°54' E 030°14'0 0.7
2018-Feb-15 05:00N 59°53' E 030°13'0 0.4
2018-Feb-15 04:29N 59°54' E 030°14'1 1.8
2018-Feb-15 04:00N 59°54' E 030°14'0 0.3
2018-Feb-15 03:28N 59°55' E 030°14'0 0.0
2018-Feb-15 02:58N 59°55' E 030°14'0 0.0
2018-Feb-15 02:28N 59°55' E 030°14'0 0.0
2018-Feb-15 01:58N 59°55' E 030°14'0 0.0
2018-Feb-15 01:28N 59°55' E 030°14'0 0.0
2018-Feb-15 00:58N 59°55' E 030°14'0 0.0
2018-Feb-15 00:28N 59°55' E 030°14'0 0.0
2018-Feb-14 23:58N 59°55' E 030°14'0 0.0
2018-Feb-14 23:28N 59°55' E 030°14'0 0.0
2018-Feb-14 22:58N 59°55' E 030°14'0 0.0
2018-Feb-14 22:28N 59°55' E 030°14'0 0.0
2018-Feb-14 21:58N 59°55' E 030°14'0 0.0
2018-Feb-14 21:28N 59°55' E 030°14'0 0.0
2018-Feb-14 20:58N 59°55' E 030°14'0 0.0
2018-Feb-14 20:28N 59°55' E 030°14'0 0.0
2018-Feb-14 19:58N 59°55' E 030°14'0 0.0
2018-Feb-14 19:25N 59°55' E 030°14'0 0.0
2018-Feb-14 18:58N 59°55' E 030°14'0 0.0
2018-Feb-14 18:28N 59°55' E 030°14'0 0.0
2018-Feb-14 17:58N 59°55' E 030°14'0 0.0
2018-Feb-14 17:28N 59°55' E 030°14'0 0.0
2018-Feb-14 16:58N 59°55' E 030°14'0 0.0
2018-Feb-14 16:28N 59°55' E 030°14'0 0.0
2018-Feb-14 15:58N 59°55' E 030°14'0 0.0
2018-Feb-14 15:28N 59°55' E 030°14'0 0.0
2018-Feb-14 14:58N 59°55' E 030°14'0 0.0
2018-Feb-14 14:28N 59°55' E 030°14'0 0.0
2018-Feb-14 13:58N 59°55' E 030°14'0 0.0
2018-Feb-14 13:28N 59°55' E 030°14'0 0.0
2018-Feb-14 12:58N 59°55' E 030°14'0 0.0
2018-Feb-14 12:28N 59°55' E 030°14'0 0.0
2018-Feb-14 11:58N 59°55' E 030°14'0 0.0
2018-Feb-14 11:28N 59°55' E 030°14'0 0.0
2018-Feb-14 10:58N 59°55' E 030°14'0 0.0
2018-Feb-14 10:28N 59°55' E 030°14'0 0.1
2018-Feb-14 10:00N 59°55' E 030°14'2 3.0
2018-Feb-14 09:19N 59°53' E 030°12'0 0.0
2018-Feb-14 08:56N 59°53' E 030°12'1 1.5
2018-Feb-14 08:27N 59°53' E 030°12'1 3.3
2018-Feb-14 08:01N 59°55' E 030°14'0 0.5
2018-Feb-14 07:30N 59°55' E 030°14'0 0.0
2018-Feb-14 07:00N 59°55' E 030°14'0 0.0
2018-Feb-14 06:30N 59°55' E 030°14'0 0.0
2018-Feb-14 06:00N 59°55' E 030°14'0 0.0
2018-Feb-14 05:30N 59°55' E 030°14'0 0.0
2018-Feb-14 04:59N 59°55' E 030°14'2 4.0
2018-Feb-14 04:30N 59°53' E 030°11'1 1.6
2018-Feb-14 03:57N 59°52' E 030°12'0 0.0
2018-Feb-14 03:30N 59°52' E 030°12'2 3.4
2018-Feb-14 03:00N 59°54' E 030°13'1 1.0
2018-Feb-14 02:28N 59°55' E 030°14'0 0.0
2018-Feb-14 01:52N 59°55' E 030°14'0 0.0
2018-Feb-14 01:25N 59°55' E 030°14'0 0.0
2018-Feb-14 00:58N 59°55' E 030°14'0 0.0
2018-Feb-14 00:28N 59°55' E 030°14'0 0.0
2018-Feb-13 23:58N 59°55' E 030°14'0 0.0
2018-Feb-13 23:28N 59°55' E 030°14'0 0.0
2018-Feb-13 22:58N 59°55' E 030°14'0 0.0
2018-Feb-13 22:28N 59°55' E 030°14'0 0.0
2018-Feb-13 21:58N 59°55' E 030°14'0 0.0
2018-Feb-13 21:28N 59°55' E 030°14'0 0.0
2018-Feb-13 20:58N 59°55' E 030°14'0 0.0
2018-Feb-13 20:25N 59°55' E 030°14'0 0.0
2018-Feb-13 19:55N 59°55' E 030°14'0 0.0
2018-Feb-13 19:28N 59°55' E 030°14'0 0.0
2018-Feb-13 18:58N 59°55' E 030°14'0 0.0
2018-Feb-13 18:28N 59°55' E 030°14'0 0.0
2018-Feb-13 17:58N 59°55' E 030°14'0 0.0
2018-Feb-13 17:28N 59°55' E 030°14'0 0.0
2018-Feb-13 16:58N 59°55' E 030°14'0 0.0
2018-Feb-13 16:28N 59°55' E 030°14'0 0.0
2018-Feb-13 15:58N 59°55' E 030°14'0 0.0
2018-Feb-13 15:28N 59°55' E 030°14'0 0.0
2018-Feb-13 14:58N 59°55' E 030°14'0 0.0
2018-Feb-13 14:28N 59°55' E 030°14'0 0.0
2018-Feb-13 13:58N 59°55' E 030°14'0 0.0
2018-Feb-13 13:28N 59°55' E 030°14'0 0.0
2018-Feb-13 12:58N 59°55' E 030°14'0 0.0
2018-Feb-13 12:28N 59°55' E 030°14'0 0.0
2018-Feb-13 11:58N 59°55' E 030°14'0 0.0
2018-Feb-13 11:25N 59°55' E 030°14'0 0.0
2018-Feb-13 10:58N 59°55' E 030°14'0 0.0
2018-Feb-13 10:28N 59°55' E 030°14'0 0.0
2018-Feb-13 09:58N 59°55' E 030°14'0 0.3
2018-Feb-13 09:30N 59°55' E 030°14'1 2.0
2018-Feb-13 09:00N 59°54' E 030°14'0 0.0
2018-Feb-13 08:28N 59°54' E 030°14'1 2.2
2018-Feb-13 08:00N 59°55' E 030°14'0 0.3
2018-Feb-13 07:22N 59°55' E 030°14'0 0.0
2018-Feb-13 06:55N 59°55' E 030°14'0 0.0
2018-Feb-13 06:28N 59°55' E 030°14'0 0.0
2018-Feb-13 05:58N 59°55' E 030°14'0 0.0
2018-Feb-13 05:28N 59°55' E 030°14'0 0.0
2018-Feb-13 04:58N 59°55' E 030°14'0 0.0
2018-Feb-13 04:28N 59°55' E 030°14'0 0.0
2018-Feb-13 03:58N 59°55' E 030°14'0 0.0
2018-Feb-13 03:29N 59°55' E 030°14'2 4.0
2018-Feb-13 03:00N 59°53' E 030°11'0 0.7
2018-Feb-13 02:30N 59°53' E 030°12'0 0.0
2018-Feb-13 02:00N 59°53' E 030°12'0 0.7
2018-Feb-13 01:30N 59°53' E 030°11'2 4.3
2018-Feb-13 01:00N 59°55' E 030°14'0 0.2
2018-Feb-13 00:25N 59°55' E 030°14'0 0.0
2018-Feb-12 23:58N 59°55' E 030°14'0 0.0
2018-Feb-12 23:28N 59°55' E 030°14'0 0.0
2018-Feb-12 22:58N 59°55' E 030°14'0 0.0
2018-Feb-12 22:28N 59°55' E 030°14'0 0.0
2018-Feb-12 21:58N 59°55' E 030°14'0 0.0
2018-Feb-12 21:28N 59°55' E 030°14'0 0.0
2018-Feb-12 20:52N 59°55' E 030°14'0 0.0
2018-Feb-12 20:28N 59°55' E 030°14'0 0.0
2018-Feb-12 19:58N 59°55' E 030°14'0 0.0
2018-Feb-12 19:28N 59°55' E 030°14'0 0.0
2018-Feb-12 18:58N 59°55' E 030°14'0 0.0
2018-Feb-12 18:28N 59°55' E 030°14'0 0.4
2018-Feb-12 18:00N 59°54' E 030°14'2 3.8
2018-Feb-12 17:27N 59°53' E 030°12'0 0.3
2018-Feb-12 16:56N 59°52' E 030°12'0 0.0
2018-Feb-12 16:19N 59°52' E 030°12'0 0.0
2018-Feb-12 16:00N 59°52' E 030°12'0 0.4
2018-Feb-12 15:07N 59°52' E 030°12'0 0.1
2018-Feb-12 14:52N 59°52' E 030°12'1 1.7
2018-Feb-12 14:30N 59°53' E 030°12'1 2.5
2018-Feb-12 14:01N 59°54' E 030°13'1 1.6
2018-Feb-12 13:29N 59°55' E 030°14'0 0.0
2018-Feb-12 12:59N 59°55' E 030°14'0 0.0
2018-Feb-12 12:29N 59°55' E 030°14'0 0.0
2018-Feb-12 11:59N 59°55' E 030°14'0 0.0
2018-Feb-12 11:26N 59°55' E 030°14'0 0.0
2018-Feb-12 10:56N 59°55' E 030°14'0 0.0
2018-Feb-12 10:29N 59°55' E 030°14'0 0.0
2018-Feb-12 09:59N 59°55' E 030°14'0 0.0
2018-Feb-12 09:29N 59°55' E 030°14'0 0.0
2018-Feb-12 08:59N 59°55' E 030°14'0 0.0
2018-Feb-12 08:29N 59°55' E 030°14'0 0.0
2018-Feb-12 07:59N 59°55' E 030°14'0 0.0
2018-Feb-12 07:30N 59°55' E 030°14'2 3.7
2018-Feb-12 06:56N 59°53' E 030°11'0 0.1
2018-Feb-12 06:30N 59°53' E 030°11'0 0.1
2018-Feb-12 05:57N 59°53' E 030°11'0 0.3
2018-Feb-12 05:30N 59°53' E 030°12'1 1.1
2018-Feb-12 05:00N 59°53' E 030°11'0 0.6
2018-Feb-12 04:21N 59°53' E 030°10'0 0.5
2018-Feb-12 03:58N 59°53' E 030°10'2 4.8
2018-Feb-12 03:29N 59°54' E 030°14'0 0.3
2018-Feb-12 02:52N 59°55' E 030°14'0 0.0
2018-Feb-12 02:28N 59°55' E 030°14'0 0.0
2018-Feb-12 01:58N 59°55' E 030°14'0 0.0
2018-Feb-12 01:28N 59°55' E 030°14'0 0.4
2018-Feb-12 01:00N 59°55' E 030°14'2 4.0
2018-Feb-12 00:28N 59°53' E 030°11'0 0.2
2018-Feb-11 23:59N 59°53' E 030°12'0 0.8
2018-Feb-11 23:30N 59°53' E 030°11'1 1.2
2018-Feb-11 23:01N 59°53' E 030°12'1 1.6
2018-Feb-11 22:30N 59°54' E 030°13'0 0.2
2018-Feb-11 21:58N 59°54' E 030°14'0 0.0
2018-Feb-11 21:28N 59°54' E 030°14'1 2.6
2018-Feb-11 21:00N 59°53' E 030°12'0 0.1
2018-Feb-11 20:30N 59°53' E 030°12'2 4.3
2018-Feb-11 20:00N 59°55' E 030°14'0 0.4
2018-Feb-11 19:28N 59°55' E 030°14'0 0.0
2018-Feb-11 18:55N 59°55' E 030°14'0 0.0
2018-Feb-11 18:28N 59°55' E 030°14'0 0.0
2018-Feb-11 17:52N 59°55' E 030°14'  

Dump ship's entire track history